createdAt,value
2018-11-11T00:00:10.678Z,44.73
2018-11-11T00:02:39.297Z,45.23
2018-11-11T00:05:09.410Z,44.30
2018-11-11T00:07:37.941Z,44.83
2018-11-11T00:10:06.704Z,44.97
2018-11-11T00:12:35.544Z,44.67
2018-11-11T00:15:04.285Z,43.77
2018-11-11T00:17:32.935Z,44.33
2018-11-11T00:20:01.502Z,44.73
2018-11-11T00:22:30.079Z,44.23
2018-11-11T00:24:58.647Z,46.27
2018-11-11T00:27:27.191Z,44.97
2018-11-11T00:29:55.736Z,46.10
2018-11-11T00:32:24.351Z,45.33
2018-11-11T00:34:52.961Z,44.77
2018-11-11T00:37:21.661Z,45.13
2018-11-11T00:39:50.396Z,45.53
2018-11-11T00:42:19.081Z,44.83
2018-11-11T00:44:47.618Z,46.50
2018-11-11T00:47:16.170Z,46.80
2018-11-11T00:49:44.701Z,45.83
2018-11-11T00:52:13.274Z,46.33
2018-11-11T00:54:41.832Z,47.50
2018-11-11T00:57:11.410Z,47.50
2018-11-11T00:59:39.985Z,45.70
2018-11-11T01:02:08.555Z,46.83
2018-11-11T01:04:37.131Z,48.17
2018-11-11T01:07:06.147Z,47.87
2018-11-11T01:09:34.753Z,47.07
2018-11-11T01:12:03.325Z,49.73
2018-11-11T01:14:31.878Z,48.40
2018-11-11T01:17:07.290Z,47.40
2018-11-11T01:19:35.866Z,48.23
2018-11-11T01:22:04.470Z,46.57
2018-11-11T01:24:33.173Z,49.13
2018-11-11T01:27:01.748Z,48.40
2018-11-11T01:29:30.355Z,47.80
2018-11-11T01:31:58.956Z,48.47
2018-11-11T01:34:27.476Z,47.77
2018-11-11T01:36:55.994Z,47.53
2018-11-11T01:39:24.497Z,49.37
2018-11-11T01:41:53.027Z,47.23
2018-11-11T01:44:21.570Z,48.10
2018-11-11T01:46:50.130Z,46.63
2018-11-11T01:49:18.720Z,48.73
2018-11-11T01:51:47.269Z,48.17
2018-11-11T01:54:15.791Z,47.20
2018-11-11T01:56:44.340Z,48.33
2018-11-11T01:59:12.922Z,48.30
2018-11-11T02:01:41.477Z,47.07
2018-11-11T02:04:10.108Z,47.23
2018-11-11T02:06:38.641Z,48.33
2018-11-11T02:09:09.662Z,47.30
2018-11-11T02:11:38.270Z,47.40
2018-11-11T02:14:06.904Z,47.33
2018-11-11T02:16:35.728Z,47.77
2018-11-11T02:19:04.343Z,47.53
2018-11-11T02:21:32.944Z,49.40
2018-11-11T02:24:01.459Z,47.70
2018-11-11T02:26:30.023Z,47.93
2018-11-11T02:28:58.586Z,46.77
2018-11-11T02:31:27.288Z,45.60
2018-11-11T02:33:56.100Z,46.13
2018-11-11T02:36:24.662Z,44.90
2018-11-11T02:38:53.246Z,44.80
2018-11-11T02:41:21.800Z,44.73
2018-11-11T02:43:50.349Z,44.50
2018-11-11T02:46:19.135Z,43.73
2018-11-11T02:48:47.678Z,41.93
2018-11-11T02:51:16.221Z,42.97
2018-11-11T02:53:44.844Z,43.13
2018-11-11T02:56:13.412Z,42.87
2018-11-11T02:58:41.972Z,42.63
2018-11-11T03:01:10.499Z,45.53
2018-11-11T03:03:39.590Z,44.90
2018-11-11T03:06:08.131Z,45.80
2018-11-11T03:08:36.695Z,44.70
2018-11-11T03:11:05.671Z,43.00
2018-11-11T03:13:34.316Z,47.23
2018-11-11T03:16:03.238Z,44.07
2018-11-11T03:18:31.805Z,45.17
2018-11-11T03:21:00.331Z,45.53
2018-11-11T03:23:28.917Z,44.37
2018-11-11T03:25:57.502Z,45.20
2018-11-11T03:28:26.190Z,47.13
2018-11-11T03:30:54.731Z,45.67
2018-11-11T03:33:23.256Z,45.50
2018-11-11T03:35:51.816Z,46.00
2018-11-11T03:38:26.982Z,44.37
2018-11-11T03:40:55.582Z,45.93
2018-11-11T03:43:24.136Z,44.97
2018-11-11T03:45:52.667Z,45.13
2018-11-11T03:48:21.203Z,46.10
2018-11-11T03:50:49.755Z,45.73
2018-11-11T03:53:18.287Z,46.00
2018-11-11T03:55:46.799Z,46.93
2018-11-11T03:58:15.315Z,45.13
2018-11-11T04:00:43.831Z,46.07
2018-11-11T04:03:12.403Z,46.40
2018-11-11T04:05:40.961Z,45.17
2018-11-11T04:08:09.657Z,44.93
2018-11-11T04:10:38.192Z,44.53
2018-11-11T04:13:06.735Z,45.93
2018-11-11T04:15:35.307Z,45.63
2018-11-11T04:18:03.851Z,46.90
2018-11-11T04:20:32.366Z,46.33
2018-11-11T04:23:00.934Z,45.83
2018-11-11T04:25:29.464Z,45.20
2018-11-11T04:27:58.032Z,44.83
2018-11-11T04:30:26.595Z,45.93
2018-11-11T04:32:55.140Z,44.63
2018-11-11T04:35:23.711Z,45.80
2018-11-11T04:37:52.243Z,45.87
2018-11-11T04:40:20.789Z,43.20
2018-11-11T04:42:49.305Z,45.97
2018-11-11T04:45:17.852Z,44.70
2018-11-11T04:47:47.019Z,44.67
2018-11-11T04:50:16.827Z,43.53
2018-11-11T04:52:46.153Z,43.87
2018-11-11T04:55:14.747Z,44.90
2018-11-11T04:57:43.812Z,46.30
2018-11-11T05:00:13.632Z,46.83
2018-11-11T05:02:42.419Z,45.37
2018-11-11T05:05:12.221Z,44.70
2018-11-11T05:07:41.140Z,45.10
2018-11-11T05:10:10.457Z,45.30
2018-11-11T05:12:38.986Z,45.33
2018-11-11T05:15:08.773Z,46.23
2018-11-11T05:17:37.399Z,45.47
2018-11-11T05:20:07.225Z,44.87
2018-11-11T05:22:36.010Z,45.33
2018-11-11T05:25:05.200Z,45.23
2018-11-11T05:27:33.781Z,45.67
2018-11-11T05:30:02.313Z,46.87
2018-11-11T05:32:30.851Z,45.23
2018-11-11T05:34:59.411Z,46.70
2018-11-11T05:37:27.959Z,46.13
2018-11-11T05:39:57.292Z,46.43
2018-11-11T05:42:25.837Z,49.30
2018-11-11T05:44:54.394Z,48.20
2018-11-11T05:47:22.976Z,48.53
2018-11-11T05:49:51.538Z,49.10
2018-11-11T05:52:20.085Z,48.80
2018-11-11T05:54:48.629Z,49.37
2018-11-11T05:57:17.187Z,48.80
2018-11-11T05:59:45.698Z,48.30
2018-11-11T06:02:14.234Z,45.63
2018-11-11T06:04:42.758Z,46.23
2018-11-11T06:07:11.338Z,48.00
2018-11-11T06:09:39.859Z,48.20
2018-11-11T06:12:08.409Z,49.73
2018-11-11T06:14:36.949Z,49.10
2018-11-11T06:17:05.765Z,51.43
2018-11-11T06:19:34.279Z,49.53
2018-11-11T06:22:02.846Z,48.73
2018-11-11T06:24:31.370Z,49.37
2018-11-11T06:26:59.984Z,48.60
2018-11-11T06:29:28.522Z,49.97
2018-11-11T06:31:57.942Z,49.60
2018-11-11T06:34:26.469Z,47.33
2018-11-11T06:36:54.987Z,48.40
2018-11-11T06:39:23.523Z,48.80
2018-11-11T06:41:52.079Z,48.80
2018-11-11T06:44:20.630Z,46.17
2018-11-11T06:46:49.198Z,46.33
2018-11-11T06:49:17.841Z,46.70
2018-11-11T06:51:46.363Z,46.47
2018-11-11T06:54:14.958Z,45.63
2018-11-11T06:56:43.538Z,45.90
2018-11-11T06:59:12.088Z,45.50
2018-11-11T07:01:40.619Z,45.80
2018-11-11T07:04:09.138Z,44.00
2018-11-11T07:06:37.752Z,43.60
2018-11-11T07:09:07.224Z,44.47
2018-11-11T07:11:35.744Z,46.50
2018-11-11T07:14:04.337Z,44.30
2018-11-11T07:16:32.843Z,46.00
2018-11-11T07:19:01.373Z,45.80
2018-11-11T07:21:29.911Z,45.20
2018-11-11T07:23:58.860Z,44.07
2018-11-11T07:26:27.522Z,44.70
2018-11-11T07:28:56.078Z,45.87
2018-11-11T07:31:24.667Z,45.87
2018-11-11T07:33:53.172Z,45.00
2018-11-11T07:36:21.816Z,45.03
2018-11-11T07:38:50.384Z,44.63
2018-11-11T07:41:18.968Z,44.13
2018-11-11T07:43:47.483Z,43.63
2018-11-11T07:46:16.017Z,44.67
2018-11-11T07:48:44.705Z,41.97
2018-11-11T07:51:13.260Z,42.50
2018-11-11T07:53:41.814Z,43.43
2018-11-11T07:56:10.334Z,42.37
2018-11-11T07:58:38.936Z,42.00
2018-11-11T08:01:07.417Z,40.23
2018-11-11T08:03:35.949Z,42.07
2018-11-11T08:06:04.826Z,41.43
2018-11-11T08:08:33.483Z,42.33
2018-11-11T08:11:13.288Z,42.70
2018-11-11T08:13:41.866Z,41.97
2018-11-11T08:16:10.433Z,43.13
2018-11-11T08:18:39.005Z,42.67
2018-11-11T08:21:07.594Z,41.23
2018-11-11T08:23:36.205Z,40.27
2018-11-11T08:26:04.932Z,41.37
2018-11-11T08:28:33.482Z,42.30
2018-11-11T08:31:02.018Z,41.70
2018-11-11T08:33:30.537Z,40.03
2018-11-11T08:35:59.757Z,41.17
2018-11-11T08:38:28.311Z,39.00
2018-11-11T08:40:56.872Z,39.90
2018-11-11T08:43:25.391Z,40.00
2018-11-11T08:45:53.939Z,39.77
2018-11-11T08:48:22.580Z,39.90
2018-11-11T08:50:51.296Z,38.97
2018-11-11T08:53:19.848Z,39.10
2018-11-11T08:55:48.379Z,39.70
2018-11-11T08:58:16.954Z,38.90
2018-11-11T09:00:45.492Z,39.63
2018-11-11T09:03:14.033Z,39.40
2018-11-11T09:05:42.633Z,39.27
2018-11-11T09:08:11.252Z,38.73
2018-11-11T09:10:39.818Z,38.87
2018-11-11T09:13:08.395Z,38.73
2018-11-11T09:15:36.976Z,39.67
2018-11-11T09:18:05.790Z,38.70
2018-11-11T09:20:34.399Z,38.37
2018-11-11T09:23:03.019Z,37.77
2018-11-11T09:25:31.632Z,38.03
2018-11-11T09:28:00.800Z,36.33
2018-11-11T09:30:29.398Z,38.27
2018-11-11T09:32:57.902Z,37.10
2018-11-11T09:35:26.483Z,36.03
2018-11-11T09:37:55.110Z,37.40
2018-11-11T09:40:23.647Z,37.47
2018-11-11T09:42:52.235Z,36.97
2018-11-11T09:45:27.382Z,36.93
2018-11-11T09:47:56.011Z,36.57
2018-11-11T09:50:24.623Z,34.80
2018-11-11T09:52:53.221Z,34.90
2018-11-11T09:55:21.831Z,35.23
2018-11-11T09:57:50.487Z,36.00
2018-11-11T10:00:20.624Z,35.97
2018-11-11T10:02:55.999Z,36.27
2018-11-11T10:06:33.817Z,35.30
2018-11-11T10:09:07.584Z,35.67
2018-11-11T10:11:41.355Z,36.33
2018-11-11T10:14:18.073Z,36.07
2018-11-11T10:16:54.998Z,36.37
2018-11-11T10:20:00.638Z,36.37
2018-11-11T10:22:34.135Z,36.53
2018-11-11T10:25:38.013Z,35.87
2018-11-11T10:28:15.542Z,36.07
2018-11-11T10:30:47.875Z,36.27
2018-11-11T10:33:45.142Z,36.87
2018-11-11T10:36:20.588Z,36.47
2018-11-11T10:38:53.370Z,36.57
2018-11-11T10:41:32.373Z,36.47
2018-11-11T10:44:03.831Z,36.70
2018-11-11T10:46:44.288Z,35.57
2018-11-11T10:49:15.611Z,35.37
2018-11-11T10:51:44.283Z,37.33
2018-11-11T10:54:12.837Z,35.23
2018-11-11T10:56:41.396Z,35.60
2018-11-11T10:59:09.964Z,37.73
2018-11-11T11:01:43.970Z,36.63
2018-11-11T11:04:12.651Z,37.83
2018-11-11T11:06:47.627Z,37.13
2018-11-11T11:09:16.172Z,37.00
2018-11-11T11:11:45.089Z,38.27
2018-11-11T11:14:14.103Z,39.77
2018-11-11T11:16:42.688Z,40.50
2018-11-11T11:19:11.472Z,53.43
2018-11-11T11:21:40.023Z,39.13
2018-11-11T11:24:08.603Z,39.73
2018-11-11T11:26:37.151Z,39.67
2018-11-11T11:29:05.829Z,42.40
2018-11-11T11:31:34.467Z,41.70
2018-11-11T11:34:02.926Z,39.77
2018-11-11T11:36:31.443Z,39.47
2018-11-11T11:39:00.016Z,40.60
2018-11-11T11:41:28.660Z,38.83
2018-11-11T11:43:57.237Z,38.93
2018-11-11T11:46:25.971Z,39.83
2018-11-11T11:48:54.501Z,39.33
2018-11-11T11:51:23.133Z,39.70
2018-11-11T11:53:51.699Z,38.50
2018-11-11T11:56:20.250Z,39.37
2018-11-11T11:58:48.804Z,39.33
2018-11-11T12:01:17.405Z,39.83
2018-11-11T12:03:46.038Z,39.40
2018-11-11T12:06:14.747Z,38.37
2018-11-11T12:08:43.505Z,37.07
2018-11-11T12:11:11.942Z,38.90
2018-11-11T12:13:40.482Z,37.13
2018-11-11T12:16:09.018Z,39.37
2018-11-11T12:18:37.572Z,39.03
2018-11-11T12:21:06.323Z,39.97
2018-11-11T12:23:34.895Z,39.00
2018-11-11T12:26:04.201Z,39.17
2018-11-11T12:28:32.754Z,39.63
2018-11-11T12:31:01.971Z,39.27
2018-11-11T12:33:30.519Z,37.77
2018-11-11T12:35:59.410Z,37.30
2018-11-11T12:38:28.080Z,37.67
2018-11-11T12:40:56.676Z,36.87
2018-11-11T12:43:25.290Z,37.13
2018-11-11T12:45:53.966Z,36.57
2018-11-11T12:48:23.598Z,37.70
2018-11-11T12:50:52.173Z,35.77
2018-11-11T12:53:20.903Z,36.90
2018-11-11T12:55:49.529Z,36.90
2018-11-11T12:58:18.088Z,36.37
2018-11-11T13:00:46.639Z,38.00
2018-11-11T13:03:15.267Z,33.93
2018-11-11T13:05:43.812Z,35.17
2018-11-11T13:08:12.404Z,35.07
2018-11-11T13:10:40.998Z,35.27
2018-11-11T13:13:09.574Z,33.53
2018-11-11T13:15:38.143Z,35.43
2018-11-11T13:18:06.792Z,34.87
2018-11-11T13:20:35.366Z,36.27
2018-11-11T13:23:04.226Z,35.87
2018-11-11T13:25:32.700Z,35.97
2018-11-11T13:28:01.950Z,35.73
2018-11-11T13:30:30.550Z,36.13
2018-11-11T13:32:59.123Z,36.00
2018-11-11T13:35:27.720Z,36.43
2018-11-11T13:37:56.381Z,36.70
2018-11-11T13:40:24.903Z,37.10
2018-11-11T13:42:53.686Z,38.37
2018-11-11T13:45:23.175Z,38.97
2018-11-11T13:47:52.222Z,39.17
2018-11-11T13:50:22.945Z,39.23
2018-11-11T13:52:51.528Z,38.93
2018-11-11T13:55:20.888Z,38.43
2018-11-11T13:57:50.003Z,37.33
2018-11-11T14:00:20.994Z,38.70
2018-11-11T14:02:50.022Z,39.00
2018-11-11T14:05:18.666Z,38.37
2018-11-11T14:07:48.107Z,38.40
2018-11-11T14:10:17.222Z,37.73
2018-11-11T14:12:45.915Z,37.73
2018-11-11T14:15:17.091Z,38.67
2018-11-11T14:17:46.262Z,38.60
2018-11-11T14:20:16.349Z,38.37
2018-11-11T14:22:46.093Z,36.83
2018-11-11T14:25:17.400Z,38.77
2018-11-11T14:27:46.231Z,38.50
2018-11-11T14:30:17.952Z,37.77
2018-11-11T14:32:47.593Z,37.20
2018-11-11T14:35:16.087Z,39.33
2018-11-11T14:37:45.047Z,38.33
2018-11-11T14:40:17.660Z,39.40
2018-11-11T14:42:46.436Z,38.57
2018-11-11T14:45:15.848Z,38.37
2018-11-11T14:47:45.689Z,37.47
2018-11-11T14:50:15.227Z,37.80
2018-11-11T14:52:44.591Z,36.70
2018-11-11T14:55:15.753Z,37.43
2018-11-11T14:57:44.597Z,36.73
2018-11-11T15:00:46.257Z,35.53
2018-11-11T15:03:17.106Z,36.50
2018-11-11T15:05:46.089Z,36.90
2018-11-11T15:08:14.666Z,36.87
2018-11-11T15:10:43.556Z,37.83
2018-11-11T15:13:13.258Z,37.10
2018-11-11T15:15:41.895Z,38.87
2018-11-11T15:18:10.456Z,37.17
2018-11-11T15:20:40.078Z,37.27
2018-11-11T15:23:10.672Z,37.57
2018-11-11T15:25:39.833Z,37.27
2018-11-11T15:28:08.650Z,38.70
2018-11-11T15:30:38.189Z,38.57
2018-11-11T15:33:07.688Z,38.63
2018-11-11T15:35:36.499Z,36.43
2018-11-11T15:38:05.692Z,36.93
2018-11-11T15:40:35.778Z,37.37
2018-11-11T15:43:04.489Z,36.20
2018-11-11T15:45:34.093Z,37.63
2018-11-11T15:48:04.222Z,37.17
2018-11-11T15:50:34.221Z,36.73
2018-11-11T15:53:04.565Z,36.87
2018-11-11T15:55:34.486Z,37.77
2018-11-11T15:58:03.548Z,38.33
2018-11-11T16:00:33.561Z,37.87
2018-11-11T16:03:02.134Z,35.77
2018-11-11T16:05:30.766Z,36.57
2018-11-11T16:08:00.148Z,37.83
2018-11-11T16:10:30.054Z,37.23
2018-11-11T16:12:58.772Z,37.23
2018-11-11T16:15:29.116Z,35.37
2018-11-11T16:17:59.446Z,35.10
2018-11-11T16:20:28.966Z,36.87
2018-11-11T16:22:58.604Z,36.40
2018-11-11T16:25:27.415Z,36.37
2018-11-11T16:27:55.953Z,36.40
2018-11-11T16:30:25.899Z,34.17
2018-11-11T16:32:55.405Z,34.67
2018-11-11T16:35:25.123Z,34.67
2018-11-11T16:37:53.767Z,34.77
2018-11-11T16:40:24.684Z,33.63
2018-11-11T16:42:53.767Z,33.37
2018-11-11T16:45:23.662Z,33.33
2018-11-11T16:47:52.607Z,31.80
2018-11-11T16:50:23.760Z,30.47
2018-11-11T16:52:53.970Z,31.13
2018-11-11T16:55:24.271Z,30.77
2018-11-11T16:57:53.022Z,30.23
2018-11-11T17:00:23.662Z,30.00
2018-11-11T17:02:52.794Z,30.53
2018-11-11T17:05:26.760Z,30.57
2018-11-11T17:07:55.571Z,29.67
2018-11-11T17:10:26.104Z,30.47
2018-11-11T17:12:55.698Z,30.70
2018-11-11T17:15:26.662Z,31.93
2018-11-11T17:17:55.214Z,30.73
2018-11-11T17:20:24.674Z,30.67
2018-11-11T17:22:54.440Z,30.93
2018-11-11T17:25:23.948Z,30.40
2018-11-11T17:27:52.491Z,30.50
2018-11-11T17:30:22.605Z,30.57
2018-11-11T17:32:51.814Z,30.90
2018-11-11T17:35:20.390Z,30.63
2018-11-11T17:37:49.177Z,28.80
2018-11-11T17:40:28.292Z,30.07
2018-11-11T17:42:58.306Z,30.13
2018-11-11T17:45:26.873Z,30.80
2018-11-11T17:47:55.956Z,29.10
2018-11-11T17:50:27.024Z,28.37
2018-11-11T17:52:55.849Z,28.07
2018-11-11T17:55:25.321Z,29.00
2018-11-11T17:57:54.028Z,29.03
2018-11-11T18:00:24.111Z,29.33
2018-11-11T18:02:53.132Z,28.37
2018-11-11T18:05:22.723Z,29.30
2018-11-11T18:07:51.313Z,29.40
2018-11-11T18:10:21.064Z,29.57
2018-11-11T18:12:49.604Z,28.30
2018-11-11T18:15:20.834Z,28.40
2018-11-11T18:17:49.416Z,28.10
2018-11-11T18:20:21.476Z,28.07
2018-11-11T18:22:51.004Z,29.20
2018-11-11T18:25:19.775Z,28.33
2018-11-11T18:27:48.386Z,27.97
2018-11-11T18:30:20.749Z,27.53
2018-11-11T18:32:49.594Z,28.00
2018-11-11T18:35:18.928Z,27.50
2018-11-11T18:37:47.732Z,27.23
2018-11-11T18:40:19.470Z,27.63
2018-11-11T18:42:48.287Z,27.87
2018-11-11T18:45:22.442Z,27.80
2018-11-11T18:47:51.733Z,27.03
2018-11-11T18:50:21.825Z,28.23
2018-11-11T18:52:51.049Z,28.07
2018-11-11T18:55:19.628Z,26.63
2018-11-11T18:57:48.310Z,27.93
2018-11-11T19:00:22.140Z,27.30
2018-11-11T19:02:51.804Z,26.50
2018-11-11T19:05:21.201Z,28.43
2018-11-11T19:07:50.178Z,26.57
2018-11-11T19:10:21.210Z,27.37
2018-11-11T19:12:50.971Z,25.27
2018-11-11T19:15:20.246Z,26.33
2018-11-11T19:17:49.555Z,25.40
2018-11-11T19:20:19.272Z,25.63
2018-11-11T19:22:47.965Z,25.50
2018-11-11T19:25:19.194Z,25.33
2018-11-11T19:27:49.103Z,24.77
2018-11-11T19:30:18.842Z,23.93
2018-11-11T19:32:47.938Z,22.80
2018-11-11T19:35:17.624Z,23.50
2018-11-11T19:37:47.482Z,22.07
2018-11-11T19:40:17.611Z,21.33
2018-11-11T19:42:46.572Z,20.93
2018-11-11T19:45:16.582Z,22.13
2018-11-11T19:47:45.192Z,21.03
2018-11-11T19:50:15.225Z,22.70
2018-11-11T19:52:45.245Z,20.80
2018-11-11T19:55:14.532Z,20.73
2018-11-11T19:57:43.530Z,21.53
2018-11-11T20:00:14.611Z,20.00
2018-11-11T20:02:44.865Z,20.23
2018-11-11T20:05:14.304Z,20.33
2018-11-11T20:07:44.257Z,19.57
2018-11-11T20:10:13.906Z,20.60
2018-11-11T20:12:42.565Z,20.00
2018-11-11T20:15:13.340Z,19.03
2018-11-11T20:17:42.228Z,18.73
2018-11-11T20:20:19.479Z,19.20
2018-11-11T20:22:48.311Z,18.97
2018-11-11T20:25:17.723Z,18.47
2018-11-11T20:27:46.509Z,17.33
2018-11-11T20:30:20.460Z,17.47
2018-11-11T20:32:49.243Z,18.23
2018-11-11T20:35:19.302Z,18.00
2018-11-11T20:37:47.847Z,17.47
2018-11-11T20:40:17.821Z,16.50
2018-11-11T20:42:47.012Z,16.80
2018-11-11T20:45:16.737Z,17.70
2018-11-11T20:47:45.813Z,16.60
2018-11-11T20:50:17.336Z,16.13
2018-11-11T20:52:47.089Z,17.50
2018-11-11T20:55:16.324Z,16.10
2018-11-11T20:57:44.937Z,16.73
2018-11-11T21:00:15.472Z,16.77
2018-11-11T21:02:44.005Z,16.77
2018-11-11T21:05:14.007Z,16.30
2018-11-11T21:07:42.793Z,16.37
2018-11-11T21:10:13.640Z,16.50
2018-11-11T21:12:42.264Z,16.07
2018-11-11T21:15:13.264Z,16.90
2018-11-11T21:17:42.275Z,15.27
2018-11-11T21:20:12.488Z,16.63
2018-11-11T21:22:41.485Z,16.47
2018-11-11T21:25:10.390Z,17.30
2018-11-11T21:27:39.885Z,16.50
2018-11-11T21:30:12.283Z,17.10
2018-11-11T21:32:40.942Z,17.43
2018-11-11T21:35:10.056Z,18.23
2018-11-11T21:37:38.773Z,18.87
2018-11-11T21:40:09.867Z,17.23
2018-11-11T21:42:38.988Z,16.87
2018-11-11T21:45:08.971Z,17.10
2018-11-11T21:47:37.630Z,18.07
2018-11-11T21:50:07.901Z,17.20
2018-11-11T21:52:36.537Z,18.23
2018-11-11T21:55:06.170Z,18.37
2018-11-11T21:57:34.810Z,19.30
2018-11-11T22:00:03.458Z,17.90
2018-11-11T22:02:32.091Z,18.50
2018-11-11T22:05:00.672Z,17.97
2018-11-11T22:07:29.421Z,18.87
2018-11-11T22:09:58.270Z,19.17
2018-11-11T22:12:26.847Z,18.23
2018-11-11T22:14:55.379Z,19.10
2018-11-11T22:17:23.932Z,19.30
2018-11-11T22:19:52.494Z,18.33
2018-11-11T22:22:21.134Z,19.07
2018-11-11T22:24:49.600Z,19.53
2018-11-11T22:27:18.152Z,18.70
2018-11-11T22:29:46.736Z,18.97
2018-11-11T22:32:15.367Z,18.37
2018-11-11T22:34:43.952Z,18.57
2018-11-11T22:37:12.466Z,18.67
2018-11-11T22:39:41.084Z,17.63
2018-11-11T22:42:09.657Z,18.33
2018-11-11T22:44:38.284Z,18.67
2018-11-11T22:47:06.943Z,18.63
2018-11-11T22:49:35.496Z,19.03
2018-11-11T22:52:04.351Z,18.47
2018-11-11T22:54:32.911Z,17.43
2018-11-11T22:57:01.425Z,17.17
2018-11-11T22:59:29.973Z,17.60
2018-11-11T23:01:58.544Z,18.10
2018-11-11T23:04:27.180Z,18.67
2018-11-11T23:06:55.721Z,17.80
2018-11-11T23:09:24.267Z,16.77
2018-11-11T23:11:52.847Z,17.87
2018-11-11T23:14:21.427Z,17.30
2018-11-11T23:16:49.978Z,17.00
2018-11-11T23:19:18.527Z,16.50
2018-11-11T23:21:47.118Z,17.50
2018-11-11T23:24:15.670Z,17.30
2018-11-11T23:26:44.715Z,16.57
2018-11-11T23:29:13.357Z,17.03
2018-11-11T23:31:41.961Z,17.50
2018-11-11T23:34:10.796Z,17.23
2018-11-11T23:36:39.373Z,16.90
2018-11-11T23:39:09.084Z,16.80
2018-11-11T23:41:37.982Z,16.90
2018-11-11T23:44:07.694Z,17.33
2018-11-11T23:46:36.662Z,16.20
2018-11-11T23:49:05.626Z,15.60
2018-11-11T23:51:34.217Z,16.73
2018-11-11T23:54:02.871Z,16.63
2018-11-11T23:56:31.403Z,16.63
2018-11-11T23:58:59.907Z,16.13
